createdAt,value
2023-02-19T00:02:02.403Z,100368.63
2023-02-19T00:04:30.849Z,100366.88
2023-02-19T00:06:59.207Z,100368.63
2023-02-19T00:09:27.582Z,100371.22
2023-02-19T00:11:57.483Z,100368.56
2023-02-19T00:14:26.180Z,100377.25
2023-02-19T00:16:54.544Z,100365.91
2023-02-19T00:19:22.918Z,100374.63
2023-02-19T00:21:53.172Z,100374.56
2023-02-19T00:24:22.147Z,100357.13
2023-02-19T00:26:50.505Z,100355.34
2023-02-19T00:29:21.761Z,100368.38
2023-02-19T00:31:50.425Z,100357.03
2023-02-19T00:34:18.893Z,100355.22
2023-02-19T00:36:47.303Z,100350.84
2023-02-19T00:39:19.561Z,100346.44
2023-02-19T00:41:48.444Z,100351.56
2023-02-19T00:44:16.995Z,100348.13
2023-02-19T00:46:48.477Z,100343.72
2023-02-19T00:49:20.156Z,100341.19
2023-02-19T00:51:50.217Z,100336.84
2023-02-19T00:54:18.868Z,100346.44
2023-02-19T00:56:48.182Z,100334.22
2023-02-19T00:59:16.966Z,100344.59
2023-02-19T01:01:46.926Z,100344.59
2023-02-19T01:04:16.427Z,100335.88
2023-02-19T01:06:44.896Z,100335.84
2023-02-19T01:09:13.674Z,100341.03
2023-02-19T01:11:42.744Z,100331.41
2023-02-19T01:14:11.228Z,100343.63
2023-02-19T01:16:39.722Z,100330.56
2023-02-19T01:19:09.554Z,100354.03
2023-02-19T01:21:37.948Z,100348.88
2023-02-19T01:24:06.651Z,100336.63
2023-02-19T01:26:35.234Z,100330.50
2023-02-19T01:29:05.153Z,100334.91
2023-02-19T01:31:34.220Z,100332.22
2023-02-19T01:34:04.944Z,100335.72
2023-02-19T01:36:36.778Z,100335.69
2023-02-19T01:39:07.157Z,100340.94
2023-02-19T01:41:39.542Z,100328.72
2023-02-19T01:44:29.627Z,100332.22
2023-02-19T01:46:58.660Z,100330.47
2023-02-19T01:49:30.289Z,100325.25
2023-02-19T01:52:02.992Z,100335.69
2023-02-19T01:54:35.853Z,100333.91
2023-02-19T01:57:09.149Z,100330.38
2023-02-19T01:59:38.257Z,100330.38
2023-02-19T02:02:07.358Z,100339.03
2023-02-19T02:04:36.317Z,100338.22
2023-02-19T02:07:28.171Z,100340.81
2023-02-19T02:10:15.122Z,100341.72
2023-02-19T02:12:43.466Z,100346.06
2023-02-19T02:15:12.444Z,100344.31
2023-02-19T02:17:48.250Z,100336.41
2023-02-19T02:20:33.187Z,100347.75
2023-02-19T02:23:08.241Z,100346.06
2023-02-19T02:26:02.118Z,100349.47
2023-02-19T02:28:54.565Z,100339.03
2023-02-19T02:31:29.788Z,100345.13
2023-02-19T02:34:02.680Z,100339.88
2023-02-19T02:36:34.547Z,100343.38
2023-02-19T02:39:07.266Z,100347.72
2023-02-19T02:41:43.887Z,100339.88
2023-02-19T02:44:12.899Z,100349.47
2023-02-19T02:46:46.145Z,100345.09
2023-02-19T02:49:21.322Z,100342.50
2023-02-19T02:51:53.810Z,100342.50
2023-02-19T02:54:50.845Z,100352.06
2023-02-19T02:57:21.801Z,100343.31
2023-02-19T02:59:54.766Z,100351.13
2023-02-19T03:02:28.641Z,100354.63
2023-02-19T03:05:22.226Z,100347.63
2023-02-19T03:07:56.043Z,100347.63
2023-02-19T03:10:32.701Z,100365.06
2023-02-19T03:13:21.644Z,100362.47
2023-02-19T03:16:14.882Z,100352.84
2023-02-19T03:19:07.357Z,100372.84
2023-02-19T03:21:39.196Z,100364.06
2023-02-19T03:24:30.416Z,100369.28
2023-02-19T03:27:01.853Z,100366.63
2023-02-19T03:29:38.414Z,100374.50
2023-02-19T03:32:13.679Z,100378.84
2023-02-19T03:34:47.858Z,100377.97
2023-02-19T03:37:25.195Z,100375.28
2023-02-19T03:39:55.479Z,100372.69
2023-02-19T03:42:36.768Z,100390.97
2023-02-19T03:45:25.103Z,100378.75
2023-02-19T03:48:04.397Z,100386.59
2023-02-19T03:50:44.030Z,100387.44
2023-02-19T03:53:21.681Z,100389.22
2023-02-19T03:56:00.431Z,100373.47
2023-02-19T03:58:34.155Z,100392.66
2023-02-19T04:01:08.599Z,100400.53
2023-02-19T04:03:41.511Z,100394.44
2023-02-19T04:06:15.642Z,100397.91
2023-02-19T04:08:47.507Z,100391.75
2023-02-19T04:11:17.844Z,100390.88
2023-02-19T04:13:51.954Z,100409.16
2023-02-19T04:16:25.142Z,100421.34
2023-02-19T04:18:57.288Z,100411.78
2023-02-19T04:21:30.179Z,100420.47
2023-02-19T04:24:02.966Z,100413.44
2023-02-19T04:26:33.699Z,100425.59
2023-02-19T04:29:02.488Z,100429.91
2023-02-19T04:31:35.221Z,100439.44
2023-02-19T04:34:04.424Z,100437.63
2023-02-19T04:36:34.636Z,100435.00
2023-02-19T04:39:02.961Z,100432.38
2023-02-19T04:41:31.345Z,100440.06
2023-02-19T04:43:59.661Z,100448.75
2023-02-19T04:46:28.190Z,100452.19
2023-02-19T04:48:57.119Z,100461.72
2023-02-19T04:51:25.555Z,100457.31
2023-02-19T04:53:56.308Z,100446.81
2023-02-19T04:56:24.738Z,100451.97
2023-02-19T04:58:53.132Z,100454.59
2023-02-19T05:01:21.506Z,100463.28
2023-02-19T05:03:49.943Z,100467.53
2023-02-19T05:06:18.249Z,100471.91
2023-02-19T05:08:46.575Z,100480.59
2023-02-19T05:11:16.267Z,100477.88
2023-02-19T05:13:44.612Z,100478.69
2023-02-19T05:16:16.176Z,100476.03
2023-02-19T05:18:46.373Z,100494.34
2023-02-19T05:21:15.305Z,100491.66
2023-02-19T05:23:43.795Z,100494.25
2023-02-19T05:26:17.050Z,100493.38
2023-02-19T05:28:47.701Z,100502.94
2023-02-19T05:31:16.804Z,100508.16
2023-02-19T05:33:50.097Z,100515.03
2023-02-19T05:36:20.389Z,100518.53
2023-02-19T05:38:52.560Z,100515.03
2023-02-19T05:41:23.034Z,100514.09
2023-02-19T05:43:53.244Z,100516.69
2023-02-19T05:46:23.642Z,100515.81
2023-02-19T05:48:53.483Z,100525.34
2023-02-19T05:51:25.843Z,100523.56
2023-02-19T05:53:54.322Z,100529.66
2023-02-19T05:56:33.720Z,100522.69
2023-02-19T05:59:06.751Z,100539.25
2023-02-19T06:01:36.143Z,100533.94
2023-02-19T06:04:04.710Z,100531.34
2023-02-19T06:06:33.461Z,100531.31
2023-02-19T06:09:01.869Z,100543.50
2023-02-19T06:11:30.510Z,100544.34
2023-02-19T06:13:58.864Z,100538.25
2023-02-19T06:16:29.197Z,100541.66
2023-02-19T06:18:57.655Z,100540.78
2023-02-19T06:21:26.112Z,100541.66
2023-02-19T06:23:55.543Z,100556.47
2023-02-19T06:26:25.765Z,100559.91
2023-02-19T06:28:54.657Z,100550.25
2023-02-19T06:31:24.339Z,100555.31
2023-02-19T06:33:55.068Z,100571.81
2023-02-19T06:36:24.321Z,100554.44
2023-02-19T06:38:52.770Z,100579.59
2023-02-19T06:41:21.185Z,100576.97
2023-02-19T06:43:49.635Z,100589.06
2023-02-19T06:46:18.048Z,100588.94
2023-02-19T06:48:46.810Z,100591.53
2023-02-19T06:51:19.525Z,100592.28
2023-02-19T06:53:47.975Z,100593.94
2023-02-19T06:56:25.544Z,100590.44
2023-02-19T06:58:54.674Z,100600.81
2023-02-19T07:01:23.622Z,100609.47
2023-02-19T07:03:52.569Z,100607.69
2023-02-19T07:06:23.719Z,100606.78
2023-02-19T07:08:53.030Z,100627.75
2023-02-19T07:11:21.402Z,100629.44
2023-02-19T07:13:49.764Z,100630.22
2023-02-19T07:16:18.736Z,100621.50
2023-02-19T07:18:47.147Z,100633.59
2023-02-19T07:21:16.908Z,100631.88
2023-02-19T07:23:46.872Z,100641.41
2023-02-19T07:26:18.991Z,100643.13
2023-02-19T07:28:48.990Z,100649.19
2023-02-19T07:31:19.814Z,100652.69
2023-02-19T07:33:48.771Z,100657.84
2023-02-19T07:36:18.414Z,100670.09
2023-02-19T07:38:48.100Z,100675.34
2023-02-19T07:41:16.443Z,100672.69
2023-02-19T07:43:44.823Z,100675.31
2023-02-19T07:46:15.110Z,100677.91
2023-02-19T07:48:44.321Z,100673.56
2023-02-19T07:51:16.420Z,100688.34
2023-02-19T07:53:44.867Z,100697.97
2023-02-19T07:56:14.676Z,100700.56
2023-02-19T07:58:43.903Z,100703.19
2023-02-19T08:01:15.157Z,100703.19
2023-02-19T08:03:43.746Z,100704.06
2023-02-19T08:06:12.723Z,100704.00
2023-02-19T08:08:41.331Z,100712.72
2023-02-19T08:11:28.740Z,100723.25
2023-02-19T08:13:58.470Z,100718.84
2023-02-19T08:16:42.269Z,100724.94
2023-02-19T08:19:11.486Z,100729.28
2023-02-19T08:21:39.860Z,100732.78
2023-02-19T08:24:08.465Z,100733.69
2023-02-19T08:26:37.220Z,100736.44
2023-02-19T08:29:07.138Z,100744.25
2023-02-19T08:31:36.106Z,100743.44
2023-02-19T08:34:04.553Z,100747.84
2023-02-19T08:36:32.882Z,100738.34
2023-02-19T08:39:01.228Z,100740.13
2023-02-19T08:41:29.555Z,100741.91
2023-02-19T08:43:57.871Z,100743.72
2023-02-19T08:46:27.559Z,100740.25
2023-02-19T08:48:55.903Z,100738.50
2023-02-19T08:51:24.219Z,100744.66
2023-02-19T08:53:52.585Z,100738.63
2023-02-19T08:56:20.913Z,100755.25
2023-02-19T08:58:49.323Z,100760.50
2023-02-19T09:01:19.245Z,100758.78
2023-02-19T09:03:48.994Z,100754.53
2023-02-19T09:06:19.126Z,100752.88
2023-02-19T09:08:47.812Z,100754.69
2023-02-19T09:11:16.465Z,100756.47
2023-02-19T09:13:44.953Z,100761.69
2023-02-19T09:16:13.612Z,100774.75
2023-02-19T09:18:42.054Z,100773.00
2023-02-19T09:21:11.967Z,100780.94
2023-02-19T09:23:40.512Z,100788.88
2023-02-19T09:26:10.080Z,100805.53
2023-02-19T09:28:41.553Z,100785.53
2023-02-19T09:31:12.743Z,100796.84
2023-02-19T09:33:44.274Z,100793.34
2023-02-19T09:36:14.860Z,100793.28
2023-02-19T09:38:43.419Z,100795.06
2023-02-19T09:41:18.154Z,100812.53
2023-02-19T09:43:47.191Z,100793.44
2023-02-19T09:46:24.896Z,100793.44
2023-02-19T09:48:55.856Z,100797.81
2023-02-19T09:51:29.132Z,100803.88
2023-02-19T09:53:58.998Z,100810.03
2023-02-19T09:56:28.661Z,100810.88
2023-02-19T09:58:59.119Z,100823.94
2023-02-19T10:01:33.929Z,100829.09
2023-02-19T10:04:02.300Z,100825.59
2023-02-19T10:06:36.216Z,100839.53
2023-02-19T10:09:18.828Z,100848.19
2023-02-19T10:11:49.514Z,100852.53
2023-02-19T10:14:23.052Z,100861.13
2023-02-19T10:16:51.555Z,100871.56
2023-02-19T10:19:20.328Z,100885.59
2023-02-19T10:21:50.100Z,100883.00
2023-02-19T10:24:25.748Z,100883.03
2023-02-19T10:26:54.275Z,100881.41
2023-02-19T10:29:24.841Z,100890.19
2023-02-19T10:32:17.020Z,100895.47
2023-02-19T10:34:45.588Z,100905.94
2023-02-19T10:37:18.200Z,100904.16
2023-02-19T10:39:48.344Z,100904.16
2023-02-19T10:42:19.042Z,100913.75
2023-02-19T10:44:50.387Z,100915.66
2023-02-19T10:47:22.585Z,100913.97
2023-02-19T10:49:52.153Z,100901.00
2023-02-19T10:52:26.591Z,100903.69
2023-02-19T10:54:57.786Z,100915.91
2023-02-19T10:57:33.319Z,100922.88
2023-02-19T11:00:04.006Z,100922.03
2023-02-19T11:02:32.983Z,100927.25
2023-02-19T11:05:18.029Z,100921.13
2023-02-19T11:07:49.644Z,100926.38
2023-02-19T11:10:26.605Z,100935.03
2023-02-19T11:12:57.420Z,100945.50
2023-02-19T11:15:30.456Z,100943.69
2023-02-19T11:18:02.120Z,100928.00
2023-02-19T11:20:31.998Z,100937.56
2023-02-19T11:23:11.652Z,100940.25
2023-02-19T11:25:46.882Z,100937.66
2023-02-19T11:28:29.400Z,100935.97
2023-02-19T11:31:15.438Z,100943.06
2023-02-19T11:33:46.650Z,100934.41
2023-02-19T11:36:29.975Z,100926.63
2023-02-19T11:39:03.888Z,100923.22
2023-02-19T11:41:51.838Z,100918.09
2023-02-19T11:44:34.159Z,100925.28
2023-02-19T11:47:30.648Z,100913.16
2023-02-19T11:50:09.654Z,100912.34
2023-02-19T11:52:43.193Z,100923.63
2023-02-19T11:55:22.381Z,100921.59
2023-02-19T11:58:00.875Z,100915.38
2023-02-19T12:00:31.466Z,100917.84
2023-02-19T12:03:32.985Z,100923.88
2023-02-19T12:06:18.944Z,100921.34
2023-02-19T12:09:13.895Z,100920.50
2023-02-19T12:11:59.517Z,100924.97
2023-02-19T12:14:56.331Z,100919.97
2023-02-19T12:17:42.767Z,100923.63
2023-02-19T12:20:21.204Z,100928.97
2023-02-19T12:23:00.989Z,100936.88
2023-02-19T12:25:50.243Z,100945.75
2023-02-19T12:28:43.315Z,100947.63
2023-02-19T12:31:34.977Z,100948.56
2023-02-19T12:34:25.342Z,100943.41
2023-02-19T12:37:04.664Z,100946.97
2023-02-19T12:39:43.072Z,100942.63
2023-02-19T12:42:18.485Z,100943.56
2023-02-19T12:44:52.517Z,100944.44
2023-02-19T12:47:27.558Z,100942.72
2023-02-19T12:50:04.872Z,100941.06
2023-02-19T12:52:40.294Z,100947.28
2023-02-19T12:55:20.327Z,100951.66
2023-02-19T12:57:48.813Z,100942.03
2023-02-19T13:00:30.715Z,100942.03
2023-02-19T13:03:04.447Z,100942.81
2023-02-19T13:05:45.163Z,100954.16
2023-02-19T13:08:18.117Z,100955.91
2023-02-19T13:10:51.845Z,100943.69
2023-02-19T13:13:24.007Z,100947.09
2023-02-19T13:15:58.760Z,100954.91
2023-02-19T13:18:33.373Z,100952.28
2023-02-19T13:21:02.027Z,100951.44
2023-02-19T13:23:50.296Z,100945.41
2023-02-19T13:26:44.028Z,100941.06
2023-02-19T13:29:28.769Z,100943.69
2023-02-19T13:32:20.786Z,100955.91
2023-02-19T13:35:01.588Z,100943.72
2023-02-19T13:37:34.249Z,100953.31
2023-02-19T13:40:06.540Z,100964.59
2023-02-19T13:42:36.733Z,100964.66
2023-02-19T13:45:07.400Z,100963.75
2023-02-19T13:48:00.825Z,100963.84
2023-02-19T13:50:31.204Z,100964.66
2023-02-19T13:53:00.813Z,100967.25
2023-02-19T13:55:49.841Z,100975.06
2023-02-19T13:58:53.900Z,100975.06
2023-02-19T14:02:17.655Z,100978.47
2023-02-19T14:04:51.701Z,100983.78
2023-02-19T14:07:35.981Z,100999.56
2023-02-19T14:10:09.627Z,101009.16
2023-02-19T14:12:38.828Z,101003.06
2023-02-19T14:15:45.031Z,101001.31
2023-02-19T14:18:45.481Z,101004.03
2023-02-19T14:21:25.522Z,101018.03
2023-02-19T14:23:56.766Z,101019.75
2023-02-19T14:26:26.564Z,101015.38
2023-02-19T14:28:55.424Z,101022.31
2023-02-19T14:31:29.075Z,101029.25
2023-02-19T14:34:00.454Z,101031.06
2023-02-19T14:36:36.532Z,101022.38
2023-02-19T14:39:08.050Z,101024.19
2023-02-19T14:41:40.878Z,101029.41
2023-02-19T14:44:16.431Z,101016.34
2023-02-19T14:46:51.828Z,101021.56
2023-02-19T14:49:25.888Z,101030.22
2023-02-19T14:51:59.447Z,101021.47
2023-02-19T14:54:38.700Z,101022.38
2023-02-19T14:57:14.511Z,101037.25
2023-02-19T14:59:53.822Z,101027.59
2023-02-19T15:02:23.955Z,101030.16
2023-02-19T15:04:52.854Z,101017.91
2023-02-19T15:07:25.383Z,101012.63
2023-02-19T15:09:58.613Z,101010.91
2023-02-19T15:12:31.424Z,101007.41
2023-02-19T15:15:04.226Z,101011.78
2023-02-19T15:17:34.618Z,101010.00
2023-02-19T15:20:06.489Z,100996.03
2023-02-19T15:22:36.384Z,100993.34
2023-02-19T15:25:06.212Z,100975.81
2023-02-19T15:27:35.517Z,100968.72
2023-02-19T15:30:04.178Z,100978.22
2023-02-19T15:32:33.100Z,100968.53
2023-02-19T15:35:04.252Z,100969.41
2023-02-19T15:37:34.798Z,100967.63
2023-02-19T15:40:09.168Z,100963.28
2023-02-19T15:42:38.567Z,100957.19
2023-02-19T15:45:15.099Z,100951.94
2023-02-19T15:47:49.424Z,100946.72
2023-02-19T15:50:23.565Z,100953.59
2023-02-19T15:52:59.621Z,100954.34
2023-02-19T15:55:36.569Z,100958.53
2023-02-19T15:58:10.005Z,100963.63
2023-02-19T16:00:42.504Z,100959.91
2023-02-19T16:03:18.839Z,100965.00
2023-02-19T16:05:47.575Z,100974.50
2023-02-19T16:08:24.537Z,100975.31
2023-02-19T16:10:59.059Z,100992.56
2023-02-19T16:13:29.468Z,100989.06
2023-02-19T16:16:02.353Z,101000.28
2023-02-19T16:18:31.901Z,100985.34
2023-02-19T16:21:00.827Z,100993.19
2023-02-19T16:23:29.264Z,101002.75
2023-02-19T16:26:03.584Z,101000.03
2023-02-19T16:28:37.325Z,101009.53
2023-02-19T16:31:08.137Z,101015.59
2023-02-19T16:33:42.168Z,100998.94
2023-02-19T16:36:18.705Z,101012.84
2023-02-19T16:39:15.514Z,101030.06
2023-02-19T16:42:17.752Z,101038.59
2023-02-19T16:44:48.319Z,101043.59
2023-02-19T16:47:30.049Z,101050.22
2023-02-19T16:49:59.909Z,101051.72
2023-02-19T16:52:28.717Z,101056.84
2023-02-19T16:54:57.066Z,101067.91
2023-02-19T16:57:26.747Z,101068.66
2023-02-19T16:59:55.069Z,101072.88
2023-02-19T17:02:25.577Z,101088.50
2023-02-19T17:04:55.622Z,101088.31
2023-02-19T17:07:24.420Z,101096.09
2023-02-19T17:09:52.859Z,101109.16
2023-02-19T17:12:21.855Z,101121.22
2023-02-19T17:14:51.625Z,101118.47
2023-02-19T17:17:20.033Z,101126.94
2023-02-19T17:19:48.448Z,101128.66
2023-02-19T17:22:17.764Z,101126.78
2023-02-19T17:24:46.390Z,101135.50
2023-02-19T17:27:15.089Z,101129.41
2023-02-19T17:29:43.738Z,101124.03
2023-02-19T17:32:14.378Z,101127.38
2023-02-19T17:34:43.083Z,101130.78
2023-02-19T17:37:12.139Z,101119.31
2023-02-19T17:39:40.685Z,101126.16
2023-02-19T17:42:09.206Z,101149.53
2023-02-19T17:44:37.649Z,101149.41
2023-02-19T17:47:06.542Z,101135.38
2023-02-19T17:49:36.372Z,101137.91
2023-02-19T17:52:05.305Z,101143.13
2023-02-19T17:54:34.330Z,101147.38
2023-02-19T17:57:02.781Z,101154.13
2023-02-19T17:59:31.157Z,101155.75
2023-02-19T18:01:59.570Z,101156.47
2023-02-19T18:04:27.980Z,101155.41
2023-02-19T18:06:57.853Z,101160.47
2023-02-19T18:09:26.264Z,101156.88
2023-02-19T18:11:54.601Z,101165.59
2023-02-19T18:14:22.975Z,101157.59
2023-02-19T18:16:51.820Z,101165.34
2023-02-19T18:19:20.215Z,101174.88
2023-02-19T18:21:48.592Z,101166.91
2023-02-19T18:24:18.384Z,101153.84
2023-02-19T18:26:46.719Z,101169.50
2023-02-19T18:29:15.134Z,101157.09
2023-02-19T18:31:43.600Z,101162.31
2023-02-19T18:34:18.667Z,101158.75
2023-02-19T18:36:47.493Z,101166.41
2023-02-19T18:39:16.686Z,101168.03
2023-02-19T18:41:49.884Z,101174.88
2023-02-19T18:44:20.151Z,101186.09
2023-02-19T18:46:48.828Z,101182.50
2023-02-19T18:49:18.464Z,101181.63
2023-02-19T18:51:47.538Z,101189.38
2023-02-19T18:54:16.122Z,101181.63
2023-02-19T18:56:45.846Z,101177.31
2023-02-19T18:59:15.628Z,101182.50
2023-02-19T19:01:44.263Z,101182.50
2023-02-19T19:04:13.011Z,101194.59
2023-02-19T19:06:41.475Z,101194.59
2023-02-19T19:09:10.125Z,101195.38
2023-02-19T19:11:38.738Z,101198.00
2023-02-19T19:14:07.179Z,101203.22
2023-02-19T19:16:37.023Z,101204.03
2023-02-19T19:19:05.380Z,101210.78
2023-02-19T19:21:33.765Z,101211.50
2023-02-19T19:24:02.343Z,101203.50
2023-02-19T19:26:30.768Z,101214.66
2023-02-19T19:28:59.190Z,101212.78
2023-02-19T19:31:34.491Z,101230.03
2023-02-19T19:34:04.380Z,101221.25
2023-02-19T19:36:32.870Z,101218.56
2023-02-19T19:39:01.253Z,101214.25
2023-02-19T19:41:29.642Z,101217.56
2023-02-19T19:43:58.174Z,101208.88
2023-02-19T19:46:26.519Z,101207.06
2023-02-19T19:48:54.946Z,101201.84
2023-02-19T19:51:24.849Z,101213.09
2023-02-19T19:53:53.307Z,101206.16
2023-02-19T19:56:21.663Z,101206.09
2023-02-19T19:58:49.997Z,101218.19
2023-02-19T20:01:21.031Z,101222.53
2023-02-19T20:03:50.973Z,101216.41
2023-02-19T20:06:27.503Z,101222.53
2023-02-19T20:08:56.367Z,101228.63
2023-02-19T20:11:24.868Z,101223.41
2023-02-19T20:13:53.217Z,101226.94
2023-02-19T20:16:25.735Z,101234.75
2023-02-19T20:18:54.157Z,101230.34
2023-02-19T20:21:22.541Z,101220.75
2023-02-19T20:23:52.210Z,101224.13
2023-02-19T20:26:25.632Z,101223.25
2023-02-19T20:28:54.095Z,101230.19
2023-02-19T20:31:23.314Z,101234.50
2023-02-19T20:33:52.026Z,101237.81
2023-02-19T20:36:20.848Z,101234.34
2023-02-19T20:38:51.766Z,101252.63
2023-02-19T20:41:20.095Z,101241.22
2023-02-19T20:43:48.495Z,101240.22
2023-02-19T20:46:16.907Z,101248.06
2023-02-19T20:48:45.805Z,101257.56
2023-02-19T20:51:14.273Z,101257.50
2023-02-19T20:53:43.768Z,101262.44
2023-02-19T20:56:13.706Z,101261.34
2023-02-19T20:58:42.589Z,101263.72
2023-02-19T21:01:12.051Z,101263.53
2023-02-19T21:03:40.529Z,101273.66
2023-02-19T21:06:09.242Z,101263.91
2023-02-19T21:08:37.792Z,101260.13
2023-02-19T21:11:06.462Z,101256.34
2023-02-19T21:13:36.167Z,101249.88
2023-02-19T21:16:04.924Z,101254.81
2023-02-19T21:18:33.346Z,101253.81
2023-02-19T21:21:01.693Z,101250.25
2023-02-19T21:23:30.034Z,101256.25
2023-02-19T21:25:58.442Z,101258.66
2023-02-19T21:28:26.770Z,101249.75
2023-02-19T21:30:56.638Z,101247.88
2023-02-19T21:33:25.058Z,101261.59
2023-02-19T21:35:53.451Z,101263.16
2023-02-19T21:38:21.737Z,101274.97
2023-02-19T21:40:50.336Z,101277.41
2023-02-19T21:43:18.737Z,101275.41
2023-02-19T21:45:47.156Z,101283.03
2023-02-19T21:48:16.933Z,101277.66
2023-02-19T21:50:45.873Z,101273.16
2023-02-19T21:53:14.710Z,101275.66
2023-02-19T21:55:57.536Z,101272.88
2023-02-19T21:58:26.988Z,101259.69
2023-02-19T22:00:56.331Z,101259.47
2023-02-19T22:03:26.879Z,101259.28
2023-02-19T22:05:55.635Z,101246.00
2023-02-19T22:08:24.042Z,101267.50
2023-02-19T22:10:52.530Z,101259.53
2023-02-19T22:13:20.893Z,101258.53
2023-02-19T22:15:49.280Z,101265.34
2023-02-19T22:18:17.593Z,101271.16
2023-02-19T22:20:47.439Z,101275.38
2023-02-19T22:23:15.889Z,101272.66
2023-02-19T22:25:44.320Z,101269.97
2023-02-19T22:28:12.735Z,101269.75
2023-02-19T22:30:41.469Z,101285.19
2023-02-19T22:33:10.191Z,101272.00
2023-02-19T22:35:38.931Z,101266.59
2023-02-19T22:38:08.697Z,101270.81
2023-02-19T22:40:37.047Z,101274.91
2023-02-19T22:43:05.454Z,101277.31
2023-02-19T22:45:33.784Z,101277.00
2023-02-19T22:48:02.160Z,101283.84
2023-02-19T22:50:30.566Z,101279.22
2023-02-19T22:52:59.150Z,101275.44
2023-02-19T22:55:28.906Z,101285.72
2023-02-19T22:57:57.284Z,101281.16
2023-02-19T23:00:25.648Z,101278.28
2023-02-19T23:02:54.003Z,101286.00
2023-02-19T23:05:23.621Z,101281.50
2023-02-19T23:07:52.121Z,101277.03
2023-02-19T23:10:20.626Z,101275.00
2023-02-19T23:12:50.351Z,101266.22
2023-02-19T23:15:18.690Z,101270.31
2023-02-19T23:17:47.110Z,101264.00
2023-02-19T23:20:15.531Z,101267.22
2023-02-19T23:22:44.031Z,101270.41
2023-02-19T23:25:12.401Z,101266.81
2023-02-19T23:27:40.850Z,101261.41
2023-02-19T23:30:11.422Z,101272.50
2023-02-19T23:32:39.776Z,101265.41
2023-02-19T23:35:08.502Z,101254.03
2023-02-19T23:37:36.888Z,101257.44
2023-02-19T23:40:05.779Z,101250.41
2023-02-19T23:42:34.129Z,101253.84
2023-02-19T23:45:02.652Z,101247.75
2023-02-19T23:47:32.353Z,101239.84
2023-02-19T23:50:00.749Z,101247.63
2023-02-19T23:52:29.089Z,101257.00
2023-02-19T23:54:57.532Z,101244.84
2023-02-19T23:57:25.936Z,101238.75
2023-02-19T23:59:54.383Z,101234.47
